sensor_id;sensor_type;location;lat;lon;timestamp;temperature;humidity
40738;DHT22;54759;48.094;-1.628;2022-09-16T00:02:03;24.20;57.80
40738;DHT22;54759;48.094;-1.628;2022-09-16T00:05:05;24.00;57.70
40738;DHT22;54759;48.094;-1.628;2022-09-16T00:08:07;24.20;57.80
40738;DHT22;54759;48.094;-1.628;2022-09-16T00:11:08;24.10;57.70
40738;DHT22;54759;48.094;-1.628;2022-09-16T00:14:13;24.20;57.80
40738;DHT22;54759;48.094;-1.628;2022-09-16T00:17:14;24.00;57.60
40738;DHT22;54759;48.094;-1.628;2022-09-16T00:20:19;23.80;57.60
40738;DHT22;54759;48.094;-1.628;2022-09-16T00:23:20;24.00;57.70
40738;DHT22;54759;48.094;-1.628;2022-09-16T00:26:21;24.10;57.70
40738;DHT22;54759;48.094;-1.628;2022-09-16T00:29:23;24.00;57.70
40738;DHT22;54759;48.094;-1.628;2022-09-16T00:32:24;24.00;57.70
40738;DHT22;54759;48.094;-1.628;2022-09-16T00:35:26;24.50;57.90
40738;DHT22;54759;48.094;-1.628;2022-09-16T00:38:28;23.80;57.50
40738;DHT22;54759;48.094;-1.628;2022-09-16T00:41:30;24.30;57.80
40738;DHT22;54759;48.094;-1.628;2022-09-16T00:47:49;23.90;57.50
40738;DHT22;54759;48.094;-1.628;2022-09-16T00:50:54;24.40;57.70
40738;DHT22;54759;48.094;-1.628;2022-09-16T00:53:57;25.10;58.20
40738;DHT22;54759;48.094;-1.628;2022-09-16T00:57:02;24.40;57.80
40738;DHT22;54759;48.094;-1.628;2022-09-16T01:00:06;23.90;57.60
40738;DHT22;54759;48.094;-1.628;2022-09-16T01:03:13;24.20;57.70
40738;DHT22;54759;48.094;-1.628;2022-09-16T01:06:15;24.30;57.70
40738;DHT22;54759;48.094;-1.628;2022-09-16T01:09:17;24.20;57.70
40738;DHT22;54759;48.094;-1.628;2022-09-16T01:12:19;24.10;57.70
40738;DHT22;54759;48.094;-1.628;2022-09-16T01:15:20;24.00;57.60
40738;DHT22;54759;48.094;-1.628;2022-09-16T01:18:25;23.70;57.40
40738;DHT22;54759;48.094;-1.628;2022-09-16T01:21:34;24.20;57.70
40738;DHT22;54759;48.094;-1.628;2022-09-16T01:24:43;23.80;57.40
40738;DHT22;54759;48.094;-1.628;2022-09-16T01:27:54;23.90;57.50
40738;DHT22;54759;48.094;-1.628;2022-09-16T01:31:03;23.70;57.40
40738;DHT22;54759;48.094;-1.628;2022-09-16T01:34:10;24.10;57.50
40738;DHT22;54759;48.094;-1.628;2022-09-16T01:37:15;23.90;57.40
40738;DHT22;54759;48.094;-1.628;2022-09-16T01:40:22;24.00;57.50
40738;DHT22;54759;48.094;-1.628;2022-09-16T01:43:26;23.90;57.50
40738;DHT22;54759;48.094;-1.628;2022-09-16T01:46:32;23.60;57.30
40738;DHT22;54759;48.094;-1.628;2022-09-16T01:49:38;23.80;57.40
40738;DHT22;54759;48.094;-1.628;2022-09-16T01:52:44;24.20;57.60
40738;DHT22;54759;48.094;-1.628;2022-09-16T01:55:50;23.90;57.50
40738;DHT22;54759;48.094;-1.628;2022-09-16T01:58:55;23.80;57.40
40738;DHT22;54759;48.094;-1.628;2022-09-16T02:01:58;23.70;57.40
40738;DHT22;54759;48.094;-1.628;2022-09-16T02:05:07;23.80;57.40
40738;DHT22;54759;48.094;-1.628;2022-09-16T02:08:10;23.80;57.50
40738;DHT22;54759;48.094;-1.628;2022-09-16T02:11:15;24.00;57.50
40738;DHT22;54759;48.094;-1.628;2022-09-16T02:14:19;24.00;57.50
40738;DHT22;54759;48.094;-1.628;2022-09-16T02:17:23;23.90;57.50
40738;DHT22;54759;48.094;-1.628;2022-09-16T02:20:27;23.70;57.30
40738;DHT22;54759;48.094;-1.628;2022-09-16T02:23:29;23.80;57.40
40738;DHT22;54759;48.094;-1.628;2022-09-16T02:26:33;24.00;57.40
40738;DHT22;54759;48.094;-1.628;2022-09-16T02:29:38;23.90;57.40
40738;DHT22;54759;48.094;-1.628;2022-09-16T02:32:42;23.70;57.90
40738;DHT22;54759;48.094;-1.628;2022-09-16T02:35:46;24.00;57.40
40738;DHT22;54759;48.094;-1.628;2022-09-16T02:38:48;24.10;57.50
40738;DHT22;54759;48.094;-1.628;2022-09-16T02:41:51;23.80;57.30
40738;DHT22;54759;48.094;-1.628;2022-09-16T02:44:55;23.90;57.40
40738;DHT22;54759;48.094;-1.628;2022-09-16T02:47:59;23.80;57.30
40738;DHT22;54759;48.094;-1.628;2022-09-16T02:51:04;23.70;57.30
40738;DHT22;54759;48.094;-1.628;2022-09-16T02:54:10;23.80;57.30
40738;DHT22;54759;48.094;-1.628;2022-09-16T02:57:15;23.70;57.30
40738;DHT22;54759;48.094;-1.628;2022-09-16T03:00:17;23.80;57.40
40738;DHT22;54759;48.094;-1.628;2022-09-16T03:03:19;23.80;57.40
40738;DHT22;54759;48.094;-1.628;2022-09-16T03:06:21;23.90;57.40
40738;DHT22;54759;48.094;-1.628;2022-09-16T03:09:23;23.60;57.20
40738;DHT22;54759;48.094;-1.628;2022-09-16T03:12:32;23.80;57.40
40738;DHT22;54759;48.094;-1.628;2022-09-16T03:15:39;23.90;57.40
40738;DHT22;54759;48.094;-1.628;2022-09-16T03:18:50;23.70;57.20
40738;DHT22;54759;48.094;-1.628;2022-09-16T03:21:57;23.60;57.20
40738;DHT22;54759;48.094;-1.628;2022-09-16T03:25:03;23.50;57.10
40738;DHT22;54759;48.094;-1.628;2022-09-16T03:28:09;23.50;57.10
40738;DHT22;54759;48.094;-1.628;2022-09-16T03:31:13;23.70;57.20
40738;DHT22;54759;48.094;-1.628;2022-09-16T03:34:18;23.60;57.10
40738;DHT22;54759;48.094;-1.628;2022-09-16T03:37:21;23.60;57.10
40738;DHT22;54759;48.094;-1.628;2022-09-16T03:40:23;24.00;57.20
40738;DHT22;54759;48.094;-1.628;2022-09-16T03:43:25;24.40;57.30
40738;DHT22;54759;48.094;-1.628;2022-09-16T03:46:26;24.10;57.20
40738;DHT22;54759;48.094;-1.628;2022-09-16T03:49:29;23.90;57.10
40738;DHT22;54759;48.094;-1.628;2022-09-16T03:52:30;23.70;57.00
40738;DHT22;54759;48.094;-1.628;2022-09-16T03:55:31;23.60;56.90
40738;DHT22;54759;48.094;-1.628;2022-09-16T03:58:33;23.70;57.00
40738;DHT22;54759;48.094;-1.628;2022-09-16T04:01:34;23.60;56.90
40738;DHT22;54759;48.094;-1.628;2022-09-16T04:04:36;23.50;56.90
40738;DHT22;54759;48.094;-1.628;2022-09-16T04:07:37;23.70;57.00
40738;DHT22;54759;48.094;-1.628;2022-09-16T04:10:39;23.70;57.00
40738;DHT22;54759;48.094;-1.628;2022-09-16T04:13:40;24.00;57.20
40738;DHT22;54759;48.094;-1.628;2022-09-16T04:16:41;23.80;57.10
40738;DHT22;54759;48.094;-1.628;2022-09-16T04:19:46;23.80;57.00
40738;DHT22;54759;48.094;-1.628;2022-09-16T04:22:47;23.50;56.90
40738;DHT22;54759;48.094;-1.628;2022-09-16T04:25:52;23.70;57.10
40738;DHT22;54759;48.094;-1.628;2022-09-16T04:28:53;23.50;56.90
40738;DHT22;54759;48.094;-1.628;2022-09-16T04:31:55;23.80;57.10
40738;DHT22;54759;48.094;-1.628;2022-09-16T04:34:57;23.50;56.90
40738;DHT22;54759;48.094;-1.628;2022-09-16T04:37:58;23.80;57.20
40738;DHT22;54759;48.094;-1.628;2022-09-16T04:41:00;23.90;57.20
40738;DHT22;54759;48.094;-1.628;2022-09-16T04:44:01;23.80;57.10
40738;DHT22;54759;48.094;-1.628;2022-09-16T04:47:03;23.80;57.10
40738;DHT22;54759;48.094;-1.628;2022-09-16T04:50:05;23.70;57.00
40738;DHT22;54759;48.094;-1.628;2022-09-16T04:53:07;23.50;56.90
40738;DHT22;54759;48.094;-1.628;2022-09-16T04:56:09;23.50;56.90
40738;DHT22;54759;48.094;-1.628;2022-09-16T04:59:12;23.50;56.90
40738;DHT22;54759;48.094;-1.628;2022-09-16T05:02:14;23.90;57.20
40738;DHT22;54759;48.094;-1.628;2022-09-16T05:05:16;23.50;57.00
40738;DHT22;54759;48.094;-1.628;2022-09-16T05:08:20;23.40;56.90
40738;DHT22;54759;48.094;-1.628;2022-09-16T05:11:22;23.60;57.10
40738;DHT22;54759;48.094;-1.628;2022-09-16T05:14:27;23.90;57.10
40738;DHT22;54759;48.094;-1.628;2022-09-16T05:17:28;23.50;56.90
40738;DHT22;54759;48.094;-1.628;2022-09-16T05:20:55;23.60;56.90
40738;DHT22;54759;48.094;-1.628;2022-09-16T05:23:58;23.50;56.90
40738;DHT22;54759;48.094;-1.628;2022-09-16T05:27:00;23.40;56.80
40738;DHT22;54759;48.094;-1.628;2022-09-16T05:30:01;23.40;56.90
40738;DHT22;54759;48.094;-1.628;2022-09-16T05:33:02;23.30;56.80
40738;DHT22;54759;48.094;-1.628;2022-09-16T05:36:05;23.50;57.00
40738;DHT22;54759;48.094;-1.628;2022-09-16T05:39:07;23.80;57.00
40738;DHT22;54759;48.094;-1.628;2022-09-16T05:42:25;23.50;56.90
40738;DHT22;54759;48.094;-1.628;2022-09-16T05:45:27;23.60;57.00
40738;DHT22;54759;48.094;-1.628;2022-09-16T05:48:33;23.70;57.10
40738;DHT22;54759;48.094;-1.628;2022-09-16T05:51:39;23.70;57.00
40738;DHT22;54759;48.094;-1.628;2022-09-16T05:54:41;23.70;56.90
40738;DHT22;54759;48.094;-1.628;2022-09-16T05:57:42;23.90;57.10
40738;DHT22;54759;48.094;-1.628;2022-09-16T06:00:43;23.70;57.10
40738;DHT22;54759;48.094;-1.628;2022-09-16T06:03:46;23.70;57.00
40738;DHT22;54759;48.094;-1.628;2022-09-16T06:06:48;23.40;56.80
40738;DHT22;54759;48.094;-1.628;2022-09-16T06:09:50;23.40;56.80
40738;DHT22;54759;48.094;-1.628;2022-09-16T06:12:53;23.70;57.00
40738;DHT22;54759;48.094;-1.628;2022-09-16T06:15:54;23.60;56.90
40738;DHT22;54759;48.094;-1.628;2022-09-16T06:18:56;23.80;57.10
40738;DHT22;54759;48.094;-1.628;2022-09-16T06:22:01;23.40;56.80
40738;DHT22;54759;48.094;-1.628;2022-09-16T06:25:02;23.70;56.90
40738;DHT22;54759;48.094;-1.628;2022-09-16T06:28:04;23.50;56.70
40738;DHT22;54759;48.094;-1.628;2022-09-16T06:31:06;23.70;56.80
40738;DHT22;54759;48.094;-1.628;2022-09-16T06:34:10;23.70;56.80
40738;DHT22;54759;48.094;-1.628;2022-09-16T06:37:13;23.60;56.70
40738;DHT22;54759;48.094;-1.628;2022-09-16T06:40:15;23.10;56.60
40738;DHT22;54759;48.094;-1.628;2022-09-16T06:43:17;23.70;57.20
40738;DHT22;54759;48.094;-1.628;2022-09-16T06:46:22;23.40;57.10
40738;DHT22;54759;48.094;-1.628;2022-09-16T06:49:24;23.50;57.40
40738;DHT22;54759;48.094;-1.628;2022-09-16T06:52:26;23.30;57.40
40738;DHT22;54759;48.094;-1.628;2022-09-16T06:55:28;23.40;57.60
40738;DHT22;54759;48.094;-1.628;2022-09-16T06:58:30;23.20;57.80
40738;DHT22;54759;48.094;-1.628;2022-09-16T07:01:33;23.30;57.90
40738;DHT22;54759;48.094;-1.628;2022-09-16T07:04:37;23.70;58.10
40738;DHT22;54759;48.094;-1.628;2022-09-16T07:07:39;22.80;57.80
40738;DHT22;54759;48.094;-1.628;2022-09-16T07:10:43;23.10;58.00
40738;DHT22;54759;48.094;-1.628;2022-09-16T07:13:45;23.30;57.90
40738;DHT22;54759;48.094;-1.628;2022-09-16T07:16:47;23.10;58.30
40738;DHT22;54759;48.094;-1.628;2022-09-16T07:19:48;23.30;58.00
40738;DHT22;54759;48.094;-1.628;2022-09-16T07:22:50;23.10;57.90
40738;DHT22;54759;48.094;-1.628;2022-09-16T07:25:58;23.10;58.10
40738;DHT22;54759;48.094;-1.628;2022-09-16T07:29:00;23.10;58.00
40738;DHT22;54759;48.094;-1.628;2022-09-16T07:32:02;23.00;58.00
40738;DHT22;54759;48.094;-1.628;2022-09-16T07:35:03;22.80;57.80
40738;DHT22;54759;48.094;-1.628;2022-09-16T07:38:05;23.10;58.30
40738;DHT22;54759;48.094;-1.628;2022-09-16T07:41:09;23.10;57.80
40738;DHT22;54759;48.094;-1.628;2022-09-16T07:44:12;23.10;57.70
40738;DHT22;54759;48.094;-1.628;2022-09-16T07:47:14;23.00;57.60
40738;DHT22;54759;48.094;-1.628;2022-09-16T07:50:22;22.90;57.60
40738;DHT22;54759;48.094;-1.628;2022-09-16T07:53:24;23.00;58.40
40738;DHT22;54759;48.094;-1.628;2022-09-16T07:56:32;23.10;57.70
40738;DHT22;54759;48.094;-1.628;2022-09-16T07:59:34;22.70;57.40
40738;DHT22;54759;48.094;-1.628;2022-09-16T08:02:35;23.20;57.80
40738;DHT22;54759;48.094;-1.628;2022-09-16T08:05:37;23.10;57.70
40738;DHT22;54759;48.094;-1.628;2022-09-16T08:08:39;23.00;57.40
40738;DHT22;54759;48.094;-1.628;2022-09-16T08:11:41;23.00;57.40
40738;DHT22;54759;48.094;-1.628;2022-09-16T08:14:42;23.10;57.50
40738;DHT22;54759;48.094;-1.628;2022-09-16T08:17:44;22.90;57.60
40738;DHT22;54759;48.094;-1.628;2022-09-16T08:20:45;23.00;57.60
40738;DHT22;54759;48.094;-1.628;2022-09-16T08:23:47;23.10;57.70
40738;DHT22;54759;48.094;-1.628;2022-09-16T08:26:49;23.10;57.50
40738;DHT22;54759;48.094;-1.628;2022-09-16T08:29:50;22.90;57.10
40738;DHT22;54759;48.094;-1.628;2022-09-16T08:32:54;23.10;57.00
40738;DHT22;54759;48.094;-1.628;2022-09-16T08:35:57;22.90;56.60
40738;DHT22;54759;48.094;-1.628;2022-09-16T08:38:59;23.30;56.60
40738;DHT22;54759;48.094;-1.628;2022-09-16T08:42:05;23.20;56.40
40738;DHT22;54759;48.094;-1.628;2022-09-16T08:45:12;23.40;56.40
40738;DHT22;54759;48.094;-1.628;2022-09-16T08:48:24;23.20;56.10
40738;DHT22;54759;48.094;-1.628;2022-09-16T08:51:29;23.40;56.10
40738;DHT22;54759;48.094;-1.628;2022-09-16T08:54:35;23.60;56.10
40738;DHT22;54759;48.094;-1.628;2022-09-16T08:57:38;23.50;56.00
40738;DHT22;54759;48.094;-1.628;2022-09-16T09:00:40;23.60;55.90
40738;DHT22;54759;48.094;-1.628;2022-09-16T09:03:42;23.60;55.70
40738;DHT22;54759;48.094;-1.628;2022-09-16T09:06:48;23.60;55.80
40738;DHT22;54759;48.094;-1.628;2022-09-16T09:09:53;23.80;55.70
40738;DHT22;54759;48.094;-1.628;2022-09-16T09:13:02;23.60;55.60
40738;DHT22;54759;48.094;-1.628;2022-09-16T09:16:10;23.90;55.60
40738;DHT22;54759;48.094;-1.628;2022-09-16T09:19:17;24.00;55.60
40738;DHT22;54759;48.094;-1.628;2022-09-16T09:22:24;23.70;55.30
40738;DHT22;54759;48.094;-1.628;2022-09-16T09:25:31;24.00;55.40
40738;DHT22;54759;48.094;-1.628;2022-09-16T09:28:39;24.00;55.40
40738;DHT22;54759;48.094;-1.628;2022-09-16T09:31:44;23.90;55.20
40738;DHT22;54759;48.094;-1.628;2022-09-16T09:34:54;23.90;55.20
40738;DHT22;54759;48.094;-1.628;2022-09-16T09:38:10;23.90;55.40
40738;DHT22;54759;48.094;-1.628;2022-09-16T09:41:13;24.00;54.90
40738;DHT22;54759;48.094;-1.628;2022-09-16T09:44:25;23.80;54.90
40738;DHT22;54759;48.094;-1.628;2022-09-16T09:47:31;24.00;55.00
40738;DHT22;54759;48.094;-1.628;2022-09-16T09:50:35;24.10;55.10
40738;DHT22;54759;48.094;-1.628;2022-09-16T09:53:41;24.20;55.00
40738;DHT22;54759;48.094;-1.628;2022-09-16T09:56:45;24.00;54.80
40738;DHT22;54759;48.094;-1.628;2022-09-16T09:59:48;24.40;54.90
40738;DHT22;54759;48.094;-1.628;2022-09-16T10:02:51;24.30;54.90
40738;DHT22;54759;48.094;-1.628;2022-09-16T10:05:52;24.20;54.80
40738;DHT22;54759;48.094;-1.628;2022-09-16T10:08:55;24.20;54.70
40738;DHT22;54759;48.094;-1.628;2022-09-16T10:11:57;24.40;54.70
40738;DHT22;54759;48.094;-1.628;2022-09-16T10:14:59;24.20;54.50
40738;DHT22;54759;48.094;-1.628;2022-09-16T10:18:01;24.30;54.50
40738;DHT22;54759;48.094;-1.628;2022-09-16T10:21:10;24.00;54.30
40738;DHT22;54759;48.094;-1.628;2022-09-16T10:27:28;24.20;54.30
40738;DHT22;54759;48.094;-1.628;2022-09-16T10:30:30;24.40;54.30
40738;DHT22;54759;48.094;-1.628;2022-09-16T10:33:34;24.50;54.40
40738;DHT22;54759;48.094;-1.628;2022-09-16T10:36:36;24.40;54.40
40738;DHT22;54759;48.094;-1.628;2022-09-16T10:39:38;24.30;54.20
40738;DHT22;54759;48.094;-1.628;2022-09-16T10:42:44;24.50;54.30
40738;DHT22;54759;48.094;-1.628;2022-09-16T10:45:47;24.40;54.30
40738;DHT22;54759;48.094;-1.628;2022-09-16T10:48:49;24.50;54.50
40738;DHT22;54759;48.094;-1.628;2022-09-16T10:51:52;24.00;54.60
40738;DHT22;54759;48.094;-1.628;2022-09-16T10:54:53;23.70;55.00
40738;DHT22;54759;48.094;-1.628;2022-09-16T11:01:09;23.90;55.40
40738;DHT22;54759;48.094;-1.628;2022-09-16T11:04:23;23.70;55.50
40738;DHT22;54759;48.094;-1.628;2022-09-16T11:07:31;23.80;55.50
40738;DHT22;54759;48.094;-1.628;2022-09-16T11:10:37;23.90;55.30
40738;DHT22;54759;48.094;-1.628;2022-09-16T11:13:44;24.00;55.20
40738;DHT22;54759;48.094;-1.628;2022-09-16T11:16:53;23.80;54.80
40738;DHT22;54759;48.094;-1.628;2022-09-16T11:20:04;23.90;54.60
40738;DHT22;54759;48.094;-1.628;2022-09-16T11:23:08;23.90;54.40
40738;DHT22;54759;48.094;-1.628;2022-09-16T11:26:16;24.20;54.30
40738;DHT22;54759;48.094;-1.628;2022-09-16T11:29:27;24.30;54.20
40738;DHT22;54759;48.094;-1.628;2022-09-16T11:32:36;24.30;54.10
40738;DHT22;54759;48.094;-1.628;2022-09-16T11:35:46;24.20;53.90
40738;DHT22;54759;48.094;-1.628;2022-09-16T11:39:02;23.90;53.70
40738;DHT22;54759;48.094;-1.628;2022-09-16T11:42:07;24.00;53.70
40738;DHT22;54759;48.094;-1.628;2022-09-16T11:45:19;24.80;54.00
40738;DHT22;54759;48.094;-1.628;2022-09-16T11:48:31;24.30;53.70
40738;DHT22;54759;48.094;-1.628;2022-09-16T11:51:39;24.10;53.50
40738;DHT22;54759;48.094;-1.628;2022-09-16T11:54:45;24.40;53.70
40738;DHT22;54759;48.094;-1.628;2022-09-16T11:57:50;24.20;53.40
40738;DHT22;54759;48.094;-1.628;2022-09-16T12:00:53;24.20;53.40
40738;DHT22;54759;48.094;-1.628;2022-09-16T12:03:58;24.20;53.20
40738;DHT22;54759;48.094;-1.628;2022-09-16T12:07:03;24.30;53.20
40738;DHT22;54759;48.094;-1.628;2022-09-16T12:10:11;24.40;53.20
40738;DHT22;54759;48.094;-1.628;2022-09-16T12:13:14;24.70;53.30
40738;DHT22;54759;48.094;-1.628;2022-09-16T12:16:17;24.90;53.40
40738;DHT22;54759;48.094;-1.628;2022-09-16T12:19:22;24.30;53.00
40738;DHT22;54759;48.094;-1.628;2022-09-16T12:22:25;24.80;53.30
40738;DHT22;54759;48.094;-1.628;2022-09-16T12:25:27;24.60;53.10
40738;DHT22;54759;48.094;-1.628;2022-09-16T12:28:33;24.80;53.20
40738;DHT22;54759;48.094;-1.628;2022-09-16T12:31:37;24.90;53.10
40738;DHT22;54759;48.094;-1.628;2022-09-16T12:34:43;24.90;53.00
40738;DHT22;54759;48.094;-1.628;2022-09-16T12:37:46;24.40;52.70
40738;DHT22;54759;48.094;-1.628;2022-09-16T12:40:52;24.80;52.90
40738;DHT22;54759;48.094;-1.628;2022-09-16T12:44:02;24.90;52.90
40738;DHT22;54759;48.094;-1.628;2022-09-16T12:47:38;24.90;52.90
40738;DHT22;54759;48.094;-1.628;2022-09-16T12:50:45;24.70;52.60
40738;DHT22;54759;48.094;-1.628;2022-09-16T12:53:54;24.90;52.70
40738;DHT22;54759;48.094;-1.628;2022-09-16T12:57:06;24.90;52.60
40738;DHT22;54759;48.094;-1.628;2022-09-16T13:00:12;24.70;52.50
40738;DHT22;54759;48.094;-1.628;2022-09-16T13:03:15;25.00;52.60
40738;DHT22;54759;48.094;-1.628;2022-09-16T13:06:20;24.70;52.40
40738;DHT22;54759;48.094;-1.628;2022-09-16T13:09:23;24.90;52.50
40738;DHT22;54759;48.094;-1.628;2022-09-16T13:12:25;24.90;52.50
40738;DHT22;54759;48.094;-1.628;2022-09-16T13:15:53;24.90;52.60
40738;DHT22;54759;48.094;-1.628;2022-09-16T13:19:14;25.10;53.10
40738;DHT22;54759;48.094;-1.628;2022-09-16T13:22:21;25.00;52.60
40738;DHT22;54759;48.094;-1.628;2022-09-16T13:25:24;24.90;52.50
40738;DHT22;54759;48.094;-1.628;2022-09-16T13:28:34;24.70;52.40
40738;DHT22;54759;48.094;-1.628;2022-09-16T13:31:43;24.90;52.30
40738;DHT22;54759;48.094;-1.628;2022-09-16T13:34:46;25.20;52.60
40738;DHT22;54759;48.094;-1.628;2022-09-16T13:37:49;25.50;52.80
40738;DHT22;54759;48.094;-1.628;2022-09-16T13:40:52;25.10;52.40
40738;DHT22;54759;48.094;-1.628;2022-09-16T13:43:54;24.70;52.20
40738;DHT22;54759;48.094;-1.628;2022-09-16T13:47:05;25.00;52.40
40738;DHT22;54759;48.094;-1.628;2022-09-16T13:50:10;25.00;52.30
40738;DHT22;54759;48.094;-1.628;2022-09-16T13:53:17;24.80;52.30
40738;DHT22;54759;48.094;-1.628;2022-09-16T13:56:23;25.10;52.30
40738;DHT22;54759;48.094;-1.628;2022-09-16T13:59:30;24.90;52.20
40738;DHT22;54759;48.094;-1.628;2022-09-16T14:02:39;24.70;52.10
40738;DHT22;54759;48.094;-1.628;2022-09-16T14:05:47;25.00;52.20
40738;DHT22;54759;48.094;-1.628;2022-09-16T14:08:56;25.10;52.30
40738;DHT22;54759;48.094;-1.628;2022-09-16T14:12:00;25.20;52.40
40738;DHT22;54759;48.094;-1.628;2022-09-16T14:15:03;25.10;52.20
40738;DHT22;54759;48.094;-1.628;2022-09-16T14:18:06;24.90;52.10
40738;DHT22;54759;48.094;-1.628;2022-09-16T14:21:16;25.10;52.30
40738;DHT22;54759;48.094;-1.628;2022-09-16T14:24:19;25.00;52.10
40738;DHT22;54759;48.094;-1.628;2022-09-16T14:27:21;25.20;52.70
40738;DHT22;54759;48.094;-1.628;2022-09-16T14:30:27;24.90;52.00
40738;DHT22;54759;48.094;-1.628;2022-09-16T14:33:29;25.00;52.10
40738;DHT22;54759;48.094;-1.628;2022-09-16T14:36:32;25.10;52.10
40738;DHT22;54759;48.094;-1.628;2022-09-16T14:39:35;25.40;52.20
40738;DHT22;54759;48.094;-1.628;2022-09-16T14:42:43;24.90;52.50
40738;DHT22;54759;48.094;-1.628;2022-09-16T14:45:53;24.70;51.70
40738;DHT22;54759;48.094;-1.628;2022-09-16T14:48:55;25.10;52.10
40738;DHT22;54759;48.094;-1.628;2022-09-16T14:51:58;25.00;52.00
40738;DHT22;54759;48.094;-1.628;2022-09-16T14:55:03;24.90;51.90
40738;DHT22;54759;48.094;-1.628;2022-09-16T14:58:07;25.10;52.00
40738;DHT22;54759;48.094;-1.628;2022-09-16T15:01:10;25.10;52.00
40738;DHT22;54759;48.094;-1.628;2022-09-16T15:04:14;25.00;51.90
40738;DHT22;54759;48.094;-1.628;2022-09-16T15:07:19;25.00;52.00
40738;DHT22;54759;48.094;-1.628;2022-09-16T15:10:22;25.00;51.90
40738;DHT22;54759;48.094;-1.628;2022-09-16T15:13:26;25.00;52.00
40738;DHT22;54759;48.094;-1.628;2022-09-16T15:16:28;25.00;51.90
40738;DHT22;54759;48.094;-1.628;2022-09-16T15:19:30;25.00;51.90
40738;DHT22;54759;48.094;-1.628;2022-09-16T15:22:33;25.10;51.90
40738;DHT22;54759;48.094;-1.628;2022-09-16T15:25:49;25.30;52.10
40738;DHT22;54759;48.094;-1.628;2022-09-16T15:28:52;25.20;52.10
40738;DHT22;54759;48.094;-1.628;2022-09-16T15:31:54;24.80;51.70
40738;DHT22;54759;48.094;-1.628;2022-09-16T15:35:11;25.00;51.90
40738;DHT22;54759;48.094;-1.628;2022-09-16T15:38:19;25.10;51.90
40738;DHT22;54759;48.094;-1.628;2022-09-16T15:41:21;25.10;51.80
40738;DHT22;54759;48.094;-1.628;2022-09-16T15:44:26;25.10;51.90
40738;DHT22;54759;48.094;-1.628;2022-09-16T15:47:28;25.00;51.80
40738;DHT22;54759;48.094;-1.628;2022-09-16T15:50:37;25.00;51.80
40738;DHT22;54759;48.094;-1.628;2022-09-16T15:53:41;25.00;51.80
40738;DHT22;54759;48.094;-1.628;2022-09-16T15:56:53;24.90;51.60
40738;DHT22;54759;48.094;-1.628;2022-09-16T15:59:59;25.10;51.80
40738;DHT22;54759;48.094;-1.628;2022-09-16T16:03:15;24.70;51.50
40738;DHT22;54759;48.094;-1.628;2022-09-16T16:06:19;25.00;51.70
40738;DHT22;54759;48.094;-1.628;2022-09-16T16:09:29;24.80;51.50
40738;DHT22;54759;48.094;-1.628;2022-09-16T16:12:31;25.00;51.60
40738;DHT22;54759;48.094;-1.628;2022-09-16T16:15:32;25.00;51.60
40738;DHT22;54759;48.094;-1.628;2022-09-16T16:18:34;25.00;51.60
40738;DHT22;54759;48.094;-1.628;2022-09-16T16:21:37;25.00;51.60
40738;DHT22;54759;48.094;-1.628;2022-09-16T16:24:39;25.00;51.60
40738;DHT22;54759;48.094;-1.628;2022-09-16T16:27:41;24.90;51.60
40738;DHT22;54759;48.094;-1.628;2022-09-16T16:30:43;24.80;51.60
40738;DHT22;54759;48.094;-1.628;2022-09-16T16:33:45;24.90;51.60
40738;DHT22;54759;48.094;-1.628;2022-09-16T16:36:47;25.00;51.80
40738;DHT22;54759;48.094;-1.628;2022-09-16T16:39:48;24.90;51.60
40738;DHT22;54759;48.094;-1.628;2022-09-16T16:42:50;25.00;51.60
40738;DHT22;54759;48.094;-1.628;2022-09-16T16:45:52;25.20;51.70
40738;DHT22;54759;48.094;-1.628;2022-09-16T16:48:54;24.80;51.40
40738;DHT22;54759;48.094;-1.628;2022-09-16T16:51:55;25.00;51.40
40738;DHT22;54759;48.094;-1.628;2022-09-16T16:54:57;25.00;51.40
40738;DHT22;54759;48.094;-1.628;2022-09-16T16:57:59;24.90;51.40
40738;DHT22;54759;48.094;-1.628;2022-09-16T17:01:08;24.90;51.30
40738;DHT22;54759;48.094;-1.628;2022-09-16T17:04:10;25.10;51.50
40738;DHT22;54759;48.094;-1.628;2022-09-16T17:07:11;24.90;51.40
40738;DHT22;54759;48.094;-1.628;2022-09-16T17:10:27;25.00;51.40
40738;DHT22;54759;48.094;-1.628;2022-09-16T17:13:29;24.80;51.30
40738;DHT22;54759;48.094;-1.628;2022-09-16T17:16:31;25.00;51.50
40738;DHT22;54759;48.094;-1.628;2022-09-16T17:19:32;25.00;51.40
40738;DHT22;54759;48.094;-1.628;2022-09-16T17:22:34;25.10;51.40
40738;DHT22;54759;48.094;-1.628;2022-09-16T17:25:35;25.40;51.60
40738;DHT22;54759;48.094;-1.628;2022-09-16T17:28:37;25.00;51.30
40738;DHT22;54759;48.094;-1.628;2022-09-16T17:31:39;24.80;51.80
40738;DHT22;54759;48.094;-1.628;2022-09-16T17:34:41;24.90;51.30
40738;DHT22;54759;48.094;-1.628;2022-09-16T17:37:42;25.00;51.30
40738;DHT22;54759;48.094;-1.628;2022-09-16T17:40:43;25.10;51.30
40738;DHT22;54759;48.094;-1.628;2022-09-16T17:43:50;25.00;51.30
40738;DHT22;54759;48.094;-1.628;2022-09-16T17:46:52;25.30;51.50
40738;DHT22;54759;48.094;-1.628;2022-09-16T17:49:53;24.70;51.10
40738;DHT22;54759;48.094;-1.628;2022-09-16T17:52:55;25.00;51.20
40738;DHT22;54759;48.094;-1.628;2022-09-16T17:56:04;25.00;51.20
40738;DHT22;54759;48.094;-1.628;2022-09-16T17:59:06;25.00;51.30
40738;DHT22;54759;48.094;-1.628;2022-09-16T18:02:08;25.00;51.30
40738;DHT22;54759;48.094;-1.628;2022-09-16T18:05:10;25.00;51.20
40738;DHT22;54759;48.094;-1.628;2022-09-16T18:08:12;24.90;51.20
40738;DHT22;54759;48.094;-1.628;2022-09-16T18:11:13;25.00;51.20
40738;DHT22;54759;48.094;-1.628;2022-09-16T18:14:15;24.70;51.10
40738;DHT22;54759;48.094;-1.628;2022-09-16T18:17:23;24.90;51.20
40738;DHT22;54759;48.094;-1.628;2022-09-16T18:20:25;25.00;51.30
40738;DHT22;54759;48.094;-1.628;2022-09-16T18:23:26;25.00;51.30
40738;DHT22;54759;48.094;-1.628;2022-09-16T18:26:28;25.00;51.30
40738;DHT22;54759;48.094;-1.628;2022-09-16T18:29:31;24.90;51.30
40738;DHT22;54759;48.094;-1.628;2022-09-16T18:32:32;24.60;51.20
40738;DHT22;54759;48.094;-1.628;2022-09-16T18:35:33;25.10;51.50
40738;DHT22;54759;48.094;-1.628;2022-09-16T18:38:37;24.90;51.40
40738;DHT22;54759;48.094;-1.628;2022-09-16T18:41:39;24.50;51.80
40738;DHT22;54759;48.094;-1.628;2022-09-16T18:44:41;24.70;51.30
40738;DHT22;54759;48.094;-1.628;2022-09-16T18:47:43;24.90;51.40
40738;DHT22;54759;48.094;-1.628;2022-09-16T18:50:44;24.70;51.30
40738;DHT22;54759;48.094;-1.628;2022-09-16T18:53:46;24.70;51.30
40738;DHT22;54759;48.094;-1.628;2022-09-16T18:56:47;24.40;51.10
40738;DHT22;54759;48.094;-1.628;2022-09-16T18:59:49;24.70;51.40
40738;DHT22;54759;48.094;-1.628;2022-09-16T19:02:51;24.50;51.20
40738;DHT22;54759;48.094;-1.628;2022-09-16T19:05:56;24.30;51.10
40738;DHT22;54759;48.094;-1.628;2022-09-16T19:08:58;24.60;51.30
40738;DHT22;54759;48.094;-1.628;2022-09-16T19:11:59;24.60;51.40
40738;DHT22;54759;48.094;-1.628;2022-09-16T19:15:02;24.60;51.40